Time;durP1;ratioP1;P1;durP2;ratioP2;P2;SDS_P1;SDS_P2;PMS_P1;PMS_P2;Temp;Humidity;BMP_temperature;BMP_pressure;BME280_temperature;BME280_humidity;BME280_pressure;Samples;Min_cycle;Max_cycle;Signal;HPM_P1;HPM_P2
2022/01/07 00:04:50;;;;;;;7.70;2.17;;;;;;;;;;10417567;28;20298;-61
2022/01/07 00:09:51;;;;;;;14.63;2.13;;;;;;;;;;10421243;28;20214;-61
2022/01/07 00:14:52;;;;;;;9.80;2.23;;;;;;;;;;10414457;28;20208;-61
2022/01/07 00:19:53;;;;;;;12.13;1.75;;;;;;;;;;10415653;28;20286;-61
2022/01/07 00:24:54;;;;;;;5.23;2.20;;;;;;;;;;10414951;28;20222;-61
2022/01/07 00:29:55;;;;;;;6.17;1.83;;;;;;;;;;10414447;28;20696;-61
2022/01/07 00:34:56;;;;;;;4.67;1.30;;;;;;;;;;10415292;28;20330;-61
2022/01/07 00:39:58;;;;;;;9.70;1.60;;;;;;;;;;10416368;28;20214;-61
2022/01/07 00:44:59;;;;;;;5.90;2.05;;;;;;;;;;10396037;28;20210;-61
2022/01/07 00:50:00;;;;;;;9.88;2.25;;;;;;;;;;10416736;28;20342;-61
2022/01/07 00:55:01;;;;;;;14.48;2.50;;;;;;;;;;10417249;28;20191;-61
2022/01/07 01:00:05;;;;;;;5.45;2.75;;;;;;;;;;10413961;28;20198;-61
2022/01/07 01:05:07;;;;;;;7.60;1.98;;;;;;;;;;10411678;28;20219;-61
2022/01/07 01:10:09;;;;;;;10.80;2.70;;;;;;;;;;10415283;28;20338;-62
2022/01/07 01:15:11;;;;;;;7.53;2.60;;;;;;;;;;10414730;28;20245;-61
2022/01/07 01:20:13;;;;;;;11.55;2.92;;;;;;;;;;10412935;28;20199;-61
2022/01/07 01:25:14;;;;;;;5.13;2.42;;;;;;;;;;10412557;28;20198;-61
2022/01/07 01:30:19;;;;;;;4.47;1.73;;;;;;;;;;10413852;28;20211;-61
2022/01/07 01:35:20;;;;;;;8.80;2.38;;;;;;;;;;10409358;28;20204;-61
2022/01/07 01:40:21;;;;;;;8.32;3.00;;;;;;;;;;10414284;28;20193;-61
2022/01/07 01:45:22;;;;;;;6.63;2.20;;;;;;;;;;10412129;28;20249;-61
2022/01/07 01:50:24;;;;;;;6.07;2.15;;;;;;;;;;10411127;28;20226;-61
2022/01/07 01:55:26;;;;;;;11.65;2.42;;;;;;;;;;10402872;28;20179;-61
2022/01/07 02:00:28;;;;;;;7.22;2.33;;;;;;;;;;10410193;28;20198;-61
2022/01/07 02:05:29;;;;;;;7.43;2.40;;;;;;;;;;10414723;28;20203;-61
2022/01/07 02:10:30;;;;;;;8.33;2.47;;;;;;;;;;10408430;28;20219;-61
2022/01/07 02:15:31;;;;;;;9.73;2.63;;;;;;;;;;10407953;28;20670;-61
2022/01/07 02:20:32;;;;;;;8.63;2.65;;;;;;;;;;10413409;28;20278;-61
2022/01/07 02:25:34;;;;;;;8.90;2.50;;;;;;;;;;10414950;28;20202;-61
2022/01/07 02:30:35;;;;;;;10.80;3.42;;;;;;;;;;10418476;28;20229;-61
2022/01/07 02:35:36;;;;;;;5.57;1.90;;;;;;;;;;10424124;28;20209;-62
2022/01/07 02:40:37;;;;;;;4.90;2.13;;;;;;;;;;10420165;28;20194;-61
2022/01/07 02:45:38;;;;;;;14.63;2.53;;;;;;;;;;10425625;28;20202;-61
2022/01/07 02:50:39;;;;;;;8.93;2.53;;;;;;;;;;10424676;28;20215;-61
2022/01/07 02:55:41;;;;;;;5.57;2.83;;;;;;;;;;10422007;28;20192;-62
2022/01/07 03:00:42;;;;;;;12.23;3.35;;;;;;;;;;10418968;28;20225;-61
2022/01/07 03:05:43;;;;;;;12.35;3.60;;;;;;;;;;10419639;28;20187;-61
2022/01/07 03:10:44;;;;;;;9.17;3.40;;;;;;;;;;10419606;28;20257;-61
2022/01/07 03:15:45;;;;;;;6.00;3.13;;;;;;;;;;10419233;28;20251;-61
2022/01/07 03:20:46;;;;;;;11.13;3.33;;;;;;;;;;10419725;28;20198;-61
2022/01/07 03:25:47;;;;;;;12.17;4.30;;;;;;;;;;10400733;28;20213;-61
2022/01/07 03:30:48;;;;;;;17.33;4.05;;;;;;;;;;10416183;28;20222;-61
2022/01/07 03:35:49;;;;;;;6.50;3.80;;;;;;;;;;10420295;28;20658;-61
2022/01/07 03:40:50;;;;;;;16.33;4.83;;;;;;;;;;10416085;28;20240;-61
2022/01/07 03:45:51;;;;;;;5.22;3.60;;;;;;;;;;10417458;28;20190;-61
2022/01/07 03:50:53;;;;;;;14.33;4.13;;;;;;;;;;10407172;28;20227;-61
2022/01/07 03:55:54;;;;;;;10.40;4.17;;;;;;;;;;10417788;28;20191;-62
2022/01/07 04:00:55;;;;;;;10.38;3.80;;;;;;;;;;10417052;28;20557;-62
2022/01/07 04:05:56;;;;;;;11.27;4.55;;;;;;;;;;10416081;28;20198;-61
2022/01/07 04:10:57;;;;;;;8.05;4.00;;;;;;;;;;10416954;28;20687;-61
2022/01/07 04:15:58;;;;;;;16.88;4.70;;;;;;;;;;10416085;28;20207;-62
2022/01/07 04:20:59;;;;;;;7.30;3.87;;;;;;;;;;10415276;28;20203;-61
2022/01/07 04:26:00;;;;;;;9.95;3.33;;;;;;;;;;10415290;28;20268;-62
2022/01/07 04:31:01;;;;;;;6.23;3.70;;;;;;;;;;10416160;28;20219;-61
2022/01/07 04:36:02;;;;;;;9.18;4.03;;;;;;;;;;10417440;28;20279;-62
2022/01/07 04:41:04;;;;;;;6.10;3.38;;;;;;;;;;10415957;28;20183;-62
2022/01/07 04:46:05;;;;;;;6.97;3.38;;;;;;;;;;10415278;28;20844;-62
2022/01/07 04:51:06;;;;;;;12.07;4.07;;;;;;;;;;10403195;28;20219;-62
2022/01/07 04:56:07;;;;;;;8.35;3.60;;;;;;;;;;10397144;28;20202;-61
2022/01/07 05:01:08;;;;;;;6.97;3.85;;;;;;;;;;10411840;28;20268;-62
2022/01/07 05:11:29;;;;;;;9.07;3.17;;;;;;;;;;10412441;28;20253;-62
2022/01/07 05:16:30;;;;;;;5.80;3.65;;;;;;;;;;10414525;28;20218;-62
2022/01/07 05:21:31;;;;;;;13.82;3.75;;;;;;;;;;10415945;28;20214;-62
2022/01/07 05:26:32;;;;;;;10.45;3.80;;;;;;;;;;10413968;28;20190;-62
2022/01/07 05:31:33;;;;;;;11.20;4.78;;;;;;;;;;10413553;28;20223;-62
2022/01/07 05:36:34;;;;;;;9.75;3.80;;;;;;;;;;10414821;28;20206;-62
2022/01/07 05:41:35;;;;;;;10.00;3.67;;;;;;;;;;10413090;28;20191;-62
2022/01/07 05:46:36;;;;;;;9.40;3.80;;;;;;;;;;10413771;28;20687;-62
2022/01/07 05:51:37;;;;;;;13.48;3.53;;;;;;;;;;10413185;28;20211;-62
2022/01/07 05:56:39;;;;;;;9.20;4.07;;;;;;;;;;10412206;28;20278;-62
2022/01/07 06:01:40;;;;;;;14.68;4.22;;;;;;;;;;10410895;28;20206;-62
2022/01/07 06:06:41;;;;;;;7.45;3.72;;;;;;;;;;10419629;28;20195;-63
2022/01/07 06:11:42;;;;;;;8.68;3.25;;;;;;;;;;10407355;28;20230;-62
2022/01/07 06:16:43;;;;;;;12.82;4.03;;;;;;;;;;10411290;28;20187;-63
2022/01/07 06:21:44;;;;;;;13.10;4.50;;;;;;;;;;10415498;28;20199;-62
2022/01/07 06:26:45;;;;;;;11.48;5.28;;;;;;;;;;10409768;28;20199;-62
2022/01/07 06:31:46;;;;;;;7.38;4.03;;;;;;;;;;10411980;28;20250;-62
2022/01/07 06:36:48;;;;;;;8.52;3.38;;;;;;;;;;10412922;28;20832;-62
2022/01/07 06:41:50;;;;;;;8.32;3.88;;;;;;;;;;10411046;28;20191;-62
2022/01/07 06:46:52;;;;;;;7.15;4.05;;;;;;;;;;10409745;28;20297;-62
2022/01/07 06:51:54;;;;;;;11.75;3.67;;;;;;;;;;10410478;28;20225;-62
2022/01/07 06:56:55;;;;;;;6.90;3.90;;;;;;;;;;10411427;28;20200;-62
2022/01/07 07:01:56;;;;;;;14.18;3.58;;;;;;;;;;10395519;28;20230;-62
2022/01/07 07:06:57;;;;;;;4.68;2.92;;;;;;;;;;10406730;28;20309;-62
2022/01/07 07:11:58;;;;;;;5.27;3.23;;;;;;;;;;10408011;28;20273;-62
2022/01/07 07:16:59;;;;;;;9.50;3.58;;;;;;;;;;10414530;28;20216;-63
2022/01/07 07:22:00;;;;;;;8.52;3.90;;;;;;;;;;10416417;28;20203;-63
2022/01/07 07:38:24;;;;;;;8.10;3.80;;;;;;;;;;10418823;28;20196;-62
2022/01/07 07:43:25;;;;;;;6.70;3.70;;;;;;;;;;10416532;28;20202;-63
2022/01/07 07:48:26;;;;;;;5.40;3.30;;;;;;;;;;10420459;28;20227;-62
2022/01/07 07:53:27;;;;;;;7.22;3.28;;;;;;;;;;10398138;28;20713;-62
2022/01/07 07:58:29;;;;;;;5.68;3.53;;;;;;;;;;10418291;28;20686;-63
2022/01/07 08:03:30;;;;;;;9.07;4.13;;;;;;;;;;10410784;28;20724;-62
2022/01/07 08:08:34;;;;;;;10.85;4.20;;;;;;;;;;10418028;28;20207;-63
2022/01/07 08:18:57;;;;;;;9.07;4.07;;;;;;;;;;10418279;28;20195;-63
2022/01/07 08:23:59;;;;;;;8.68;4.82;;;;;;;;;;10418505;28;20204;-62
2022/01/07 08:29:05;;;;;;;6.53;3.88;;;;;;;;;;10413246;28;20215;-62
2022/01/07 08:39:26;;;;;;;10.25;4.53;;;;;;;;;;10414130;28;20206;-62
2022/01/07 08:44:27;;;;;;;9.57;3.95;;;;;;;;;;10412726;28;20284;-63
2022/01/07 08:49:28;;;;;;;6.32;3.67;;;;;;;;;;10416527;28;20608;-63
2022/01/07 08:54:29;;;;;;;4.00;3.67;;;;;;;;;;10409539;28;20208;-63
2022/01/07 08:59:30;;;;;;;6.75;4.18;;;;;;;;;;10414260;28;20234;-64
2022/01/07 09:04:31;;;;;;;12.43;4.40;;;;;;;;;;10411872;28;20257;-64
2022/01/07 09:09:33;;;;;;;8.27;4.15;;;;;;;;;;10417597;28;20211;-64
2022/01/07 09:14:34;;;;;;;8.10;4.15;;;;;;;;;;10410707;28;20220;-63
2022/01/07 09:19:35;;;;;;;4.45;3.50;;;;;;;;;;10411920;28;20198;-63
2022/01/07 09:24:36;;;;;;;5.63;3.58;;;;;;;;;;10414253;28;20244;-63
2022/01/07 09:29:37;;;;;;;3.72;3.20;;;;;;;;;;10411488;28;20222;-63
2022/01/07 09:34:38;;;;;;;9.52;3.30;;;;;;;;;;10411993;28;20215;-63
2022/01/07 09:39:39;;;;;;;7.15;3.92;;;;;;;;;;10409579;28;20195;-63
2022/01/07 09:44:41;;;;;;;10.35;4.25;;;;;;;;;;10416736;28;21521;-63
2022/01/07 09:49:42;;;;;;;6.03;4.07;;;;;;;;;;10413411;28;20254;-63
2022/01/07 09:54:43;;;;;;;6.53;3.83;;;;;;;;;;10410719;28;20294;-63
2022/01/07 09:59:51;;;;;;;6.45;3.28;;;;;;;;;;10413439;28;20227;-64
2022/01/07 10:04:53;;;;;;;6.72;3.80;;;;;;;;;;10397231;28;20218;-63
2022/01/07 10:10:07;;;;;;;6.15;3.42;;;;;;;;;;10408319;28;20215;-63
2022/01/07 10:15:09;;;;;;;5.20;3.58;;;;;;;;;;10410984;28;20199;-63
2022/01/07 10:20:15;;;;;;;4.00;3.53;;;;;;;;;;10413030;28;20202;-63
2022/01/07 10:25:20;;;;;;;3.97;3.40;;;;;;;;;;10413457;28;20203;-64
2022/01/07 10:30:26;;;;;;;6.40;3.33;;;;;;;;;;10411378;28;20218;-63
2022/01/07 10:35:27;;;;;;;4.93;3.58;;;;;;;;;;10409197;28;20187;-63
2022/01/07 10:40:36;;;;;;;7.22;4.38;;;;;;;;;;10408097;28;20200;-64
2022/01/07 10:45:37;;;;;;;6.43;4.57;;;;;;;;;;10409789;28;20260;-64
2022/01/07 10:50:46;;;;;;;9.90;4.50;;;;;;;;;;10413680;28;20256;-64
2022/01/07 10:56:02;;;;;;;6.82;4.78;;;;;;;;;;10411869;28;20244;-63
2022/01/07 11:01:03;;;;;;;6.60;4.72;;;;;;;;;;10418792;28;20326;-62
2022/01/07 11:06:04;;;;;;;7.45;4.72;;;;;;;;;;10416922;28;20213;-63
2022/01/07 11:11:05;;;;;;;10.82;5.10;;;;;;;;;;10421870;28;20285;-62
2022/01/07 11:16:06;;;;;;;7.13;4.45;;;;;;;;;;10414852;28;20210;-63
2022/01/07 11:21:08;;;;;;;9.05;3.88;;;;;;;;;;10421537;28;20199;-63
2022/01/07 11:26:10;;;;;;;8.10;4.30;;;;;;;;;;10417754;28;20199;-63
2022/01/07 11:31:14;;;;;;;9.27;6.35;;;;;;;;;;10415201;28;20253;-65
2022/01/07 11:36:34;;;;;;;4.35;3.83;;;;;;;;;;10415913;28;20200;-64
2022/01/07 11:41:43;;;;;;;6.50;4.03;;;;;;;;;;10415699;28;21183;-65
2022/01/07 11:46:44;;;;;;;5.10;4.72;;;;;;;;;;10415354;28;20282;-65
2022/01/07 11:51:45;;;;;;;8.27;4.40;;;;;;;;;;10416536;28;20231;-65
2022/01/07 11:56:46;;;;;;;4.55;4.00;;;;;;;;;;10414030;28;20207;-65
2022/01/07 12:01:58;;;;;;;3.97;3.60;;;;;;;;;;10407779;28;20349;-65
2022/01/07 12:07:01;;;;;;;4.72;3.53;;;;;;;;;;10415703;28;20196;-65
2022/01/07 12:12:10;;;;;;;4.53;4.00;;;;;;;;;;10417508;28;20206;-65
2022/01/07 12:17:13;;;;;;;4.50;4.13;;;;;;;;;;10416783;28;20302;-65
2022/01/07 12:22:18;;;;;;;4.15;3.85;;;;;;;;;;10409830;28;20210;-65
2022/01/07 12:27:20;;;;;;;3.85;3.55;;;;;;;;;;10412311;28;20240;-65
2022/01/07 12:32:28;;;;;;;4.38;3.58;;;;;;;;;;10405771;28;20285;-65
2022/01/07 12:37:30;;;;;;;3.47;3.17;;;;;;;;;;10415857;28;20290;-65
2022/01/07 12:42:36;;;;;;;3.10;2.90;;;;;;;;;;10415074;28;20212;-65
2022/01/07 12:47:37;;;;;;;3.42;3.20;;;;;;;;;;10415305;28;20208;-65
2022/01/07 12:52:43;;;;;;;4.28;2.97;;;;;;;;;;10405779;28;20207;-65
2022/01/07 12:57:46;;;;;;;2.70;2.60;;;;;;;;;;10407639;28;20232;-65
2022/01/07 13:02:49;;;;;;;3.03;2.85;;;;;;;;;;10414456;28;20204;-65
2022/01/07 13:07:51;;;;;;;3.30;3.10;;;;;;;;;;10412509;28;20218;-64
2022/01/07 13:12:53;;;;;;;3.03;2.80;;;;;;;;;;10412102;28;20188;-64
2022/01/07 13:17:54;;;;;;;3.15;2.92;;;;;;;;;;10411587;28;20188;-64
2022/01/07 13:22:55;;;;;;;3.00;2.80;;;;;;;;;;10413200;28;20205;-65
2022/01/07 13:27:56;;;;;;;2.72;2.53;;;;;;;;;;10414407;28;20188;-65
2022/01/07 13:33:11;;;;;;;2.72;2.58;;;;;;;;;;10410336;28;20230;-64
2022/01/07 13:38:13;;;;;;;2.72;2.53;;;;;;;;;;10408811;28;20633;-64
2022/01/07 13:43:15;;;;;;;2.65;2.35;;;;;;;;;;10410029;28;20195;-65
2022/01/07 13:48:16;;;;;;;3.03;2.92;;;;;;;;;;10410613;28;20218;-65
2022/01/07 13:53:19;;;;;;;2.67;2.58;;;;;;;;;;10407417;28;20314;-65
2022/01/07 13:58:20;;;;;;;4.40;2.75;;;;;;;;;;10410263;28;20199;-65
2022/01/07 14:03:21;;;;;;;2.47;2.38;;;;;;;;;;10409635;28;20694;-65
2022/01/07 14:08:22;;;;;;;3.00;2.80;;;;;;;;;;10411858;28;20215;-64
2022/01/07 14:13:24;;;;;;;3.20;3.00;;;;;;;;;;10408609;28;20196;-64
2022/01/07 14:18:26;;;;;;;2.78;2.67;;;;;;;;;;10409450;28;20199;-64
2022/01/07 14:23:31;;;;;;;2.55;2.35;;;;;;;;;;10407940;28;20195;-64
2022/01/07 14:28:34;;;;;;;2.58;2.47;;;;;;;;;;10406655;28;20275;-64
2022/01/07 14:33:35;;;;;;;2.75;2.65;;;;;;;;;;10409102;28;21064;-65
2022/01/07 14:38:36;;;;;;;3.35;3.15;;;;;;;;;;10406848;28;20294;-64
2022/01/07 14:43:37;;;;;;;3.67;3.47;;;;;;;;;;10405682;28;20195;-64
2022/01/07 14:48:40;;;;;;;6.65;6.05;;;;;;;;;;10408961;28;20234;-64
2022/01/07 14:53:41;;;;;;;4.90;4.47;;;;;;;;;;10408442;28;20875;-65
2022/01/07 14:58:44;;;;;;;4.38;4.18;;;;;;;;;;10406733;28;20194;-65
2022/01/07 15:03:45;;;;;;;4.65;4.35;;;;;;;;;;10410246;28;20239;-65
2022/01/07 15:08:46;;;;;;;3.67;3.38;;;;;;;;;;10407040;28;20911;-65
2022/01/07 15:13:47;;;;;;;3.80;3.70;;;;;;;;;;10410149;28;20195;-65
2022/01/07 15:18:48;;;;;;;2.80;2.60;;;;;;;;;;10408443;28;20682;-64
2022/01/07 15:23:49;;;;;;;4.30;4.10;;;;;;;;;;10410705;28;20188;-65
2022/01/07 15:28:50;;;;;;;2.53;2.42;;;;;;;;;;10409870;28;20211;-65
2022/01/07 15:33:51;;;;;;;2.70;2.60;;;;;;;;;;10407662;28;20873;-65
2022/01/07 15:38:52;;;;;;;2.95;2.85;;;;;;;;;;10413669;28;20277;-63
2022/01/07 15:43:53;;;;;;;3.92;3.63;;;;;;;;;;10403141;28;20204;-64
2022/01/07 15:48:54;;;;;;;2.85;2.65;;;;;;;;;;10413362;28;20258;-64
2022/01/07 15:53:56;;;;;;;2.88;2.78;;;;;;;;;;10417810;28;20210;-64
2022/01/07 15:58:57;;;;;;;3.45;3.35;;;;;;;;;;10412267;28;20195;-64
2022/01/07 16:03:58;;;;;;;3.75;3.30;;;;;;;;;;10411686;28;20223;-64
2022/01/07 16:08:59;;;;;;;2.83;2.63;;;;;;;;;;10412141;28;20210;-63
2022/01/07 16:14:00;;;;;;;3.35;3.17;;;;;;;;;;10415812;28;20234;-65
2022/01/07 16:19:02;;;;;;;7.47;4.70;;;;;;;;;;10388739;28;20314;-65
2022/01/07 16:24:03;;;;;;;4.88;4.28;;;;;;;;;;10414799;28;20198;-63
2022/01/07 16:29:04;;;;;;;3.13;2.88;;;;;;;;;;10415150;28;20753;-64
2022/01/07 16:34:05;;;;;;;3.83;3.45;;;;;;;;;;10397708;28;20221;-64
2022/01/07 16:39:06;;;;;;;4.00;3.60;;;;;;;;;;10416366;28;21031;-64
2022/01/07 16:44:07;;;;;;;5.15;4.90;;;;;;;;;;10415481;28;20199;-64
2022/01/07 16:49:08;;;;;;;3.72;3.53;;;;;;;;;;10412450;28;20308;-64
2022/01/07 16:54:10;;;;;;;3.40;3.20;;;;;;;;;;10405452;28;20202;-64
2022/01/07 16:59:11;;;;;;;3.08;2.97;;;;;;;;;;10411904;28;20261;-64
2022/01/07 17:04:12;;;;;;;3.65;3.55;;;;;;;;;;10412499;28;20304;-64
2022/01/07 17:09:13;;;;;;;3.10;2.95;;;;;;;;;;10409917;28;20269;-64
2022/01/07 17:14:14;;;;;;;3.95;3.67;;;;;;;;;;10410606;28;20199;-66
2022/01/07 17:19:15;;;;;;;4.10;3.80;;;;;;;;;;10406629;28;20290;-63
2022/01/07 17:24:16;;;;;;;4.45;3.90;;;;;;;;;;10412884;28;20222;-64
2022/01/07 17:29:17;;;;;;;4.10;3.90;;;;;;;;;;10408380;28;20325;-64
2022/01/07 17:34:18;;;;;;;2.70;2.60;;;;;;;;;;10411904;28;20260;-64
2022/01/07 17:39:19;;;;;;;3.38;3.03;;;;;;;;;;10409940;28;20210;-65
2022/01/07 17:44:20;;;;;;;3.05;2.78;;;;;;;;;;10411698;28;20199;-65
2022/01/07 17:49:21;;;;;;;2.55;2.45;;;;;;;;;;10407515;28;20234;-65
2022/01/07 17:54:22;;;;;;;2.63;2.42;;;;;;;;;;10406170;28;20194;-65
2022/01/07 17:59:23;;;;;;;2.50;2.15;;;;;;;;;;10411408;28;20199;-64
2022/01/07 18:04:24;;;;;;;2.50;2.35;;;;;;;;;;10407741;28;20225;-64
2022/01/07 18:09:25;;;;;;;2.85;2.75;;;;;;;;;;10408886;28;20211;-64
2022/01/07 18:14:28;;;;;;;2.05;2.05;;;;;;;;;;10410130;28;20190;-64
2022/01/07 18:19:29;;;;;;;3.45;3.15;;;;;;;;;;10407522;28;20296;-64
2022/01/07 18:24:30;;;;;;;3.60;3.30;;;;;;;;;;10410059;28;20197;-64
2022/01/07 18:29:31;;;;;;;3.70;3.40;;;;;;;;;;10410251;28;20591;-65
2022/01/07 18:34:33;;;;;;;4.05;3.80;;;;;;;;;;10404505;28;20272;-64
2022/01/07 18:39:34;;;;;;;4.60;4.25;;;;;;;;;;10409941;28;20192;-65
2022/01/07 18:44:35;;;;;;;4.25;3.95;;;;;;;;;;10411196;28;20202;-65
2022/01/07 18:49:36;;;;;;;4.30;4.07;;;;;;;;;;10408631;28;20238;-63
2022/01/07 18:54:38;;;;;;;4.82;4.53;;;;;;;;;;10410575;28;20221;-64
2022/01/07 18:59:39;;;;;;;3.97;3.60;;;;;;;;;;10409495;28;20213;-63
2022/01/07 19:04:40;;;;;;;4.13;3.78;;;;;;;;;;10406906;28;20306;-65
2022/01/07 19:09:42;;;;;;;4.35;3.97;;;;;;;;;;10412588;28;20207;-64
2022/01/07 19:14:43;;;;;;;4.40;4.20;;;;;;;;;;10417743;28;20221;-63
2022/01/07 19:19:44;;;;;;;5.05;4.22;;;;;;;;;;10415468;28;20188;-63
2022/01/07 19:24:45;;;;;;;4.35;4.05;;;;;;;;;;10413311;28;20214;-64
2022/01/07 19:29:47;;;;;;;4.63;4.43;;;;;;;;;;10414314;28;20230;-64
2022/01/07 19:34:48;;;;;;;4.03;3.78;;;;;;;;;;10414376;28;20211;-64
2022/01/07 19:39:49;;;;;;;4.43;4.22;;;;;;;;;;10413089;28;20197;-64
2022/01/07 19:44:50;;;;;;;4.38;4.15;;;;;;;;;;10412779;28;20203;-65
2022/01/07 19:49:52;;;;;;;4.40;4.10;;;;;;;;;;10413929;28;20227;-65
2022/01/07 19:54:53;;;;;;;5.05;4.82;;;;;;;;;;10413201;28;20218;-66
2022/01/07 19:59:54;;;;;;;4.53;4.05;;;;;;;;;;10414204;28;20194;-64
2022/01/07 20:04:55;;;;;;;5.38;5.07;;;;;;;;;;10414648;28;20219;-64
2022/01/07 20:09:56;;;;;;;5.32;4.82;;;;;;;;;;10414581;28;20243;-64
2022/01/07 20:14:57;;;;;;;5.10;4.70;;;;;;;;;;10413589;28;20566;-64
2022/01/07 20:19:58;;;;;;;5.18;4.88;;;;;;;;;;10412374;28;20695;-65
2022/01/07 20:25:00;;;;;;;4.70;4.30;;;;;;;;;;10414025;28;21064;-65
2022/01/07 20:30:02;;;;;;;5.22;4.82;;;;;;;;;;10413072;28;20623;-64
2022/01/07 20:35:03;;;;;;;6.35;5.90;;;;;;;;;;10412897;28;20207;-64
2022/01/07 20:40:04;;;;;;;9.55;6.05;;;;;;;;;;10415717;28;20193;-64
2022/01/07 20:45:06;;;;;;;5.68;5.28;;;;;;;;;;10413871;28;20199;-65
2022/01/07 20:50:07;;;;;;;5.40;5.00;;;;;;;;;;10388663;28;20921;-63
2022/01/07 20:55:09;;;;;;;6.25;5.65;;;;;;;;;;10355233;28;20279;-65
2022/01/07 21:00:14;;;;;;;5.88;5.30;;;;;;;;;;10372215;28;20275;-63
2022/01/07 21:05:16;;;;;;;6.03;4.72;;;;;;;;;;10372214;28;20211;-64
2022/01/07 21:10:17;;;;;;;6.72;6.13;;;;;;;;;;10357743;28;20677;-63
2022/01/07 21:15:18;;;;;;;5.35;4.90;;;;;;;;;;10370183;28;20214;-65
2022/01/07 21:20:19;;;;;;;6.30;5.60;;;;;;;;;;10371801;28;20199;-65
2022/01/07 21:25:20;;;;;;;6.32;4.82;;;;;;;;;;10351672;28;20606;-66
2022/01/07 21:30:21;;;;;;;6.63;6.03;;;;;;;;;;10371100;28;20222;-65
2022/01/07 21:35:23;;;;;;;6.70;6.10;;;;;;;;;;10370611;28;20230;-65
2022/01/07 21:40:24;;;;;;;7.07;6.43;;;;;;;;;;10363126;28;20204;-65
2022/01/07 21:45:25;;;;;;;6.13;5.53;;;;;;;;;;10368968;28;20194;-65
2022/01/07 21:50:27;;;;;;;7.07;6.38;;;;;;;;;;10402501;28;20293;-64
2022/01/07 21:55:32;;;;;;;7.38;6.88;;;;;;;;;;10412798;28;20581;-65
2022/01/07 22:00:33;;;;;;;7.25;6.55;;;;;;;;;;10411632;28;20767;-64
2022/01/07 22:05:34;;;;;;;6.68;6.05;;;;;;;;;;10415796;28;20241;-64
2022/01/07 22:10:35;;;;;;;7.88;7.13;;;;;;;;;;10413069;28;20210;-65
2022/01/07 22:15:37;;;;;;;6.32;5.70;;;;;;;;;;10411847;28;20189;-64
2022/01/07 22:20:38;;;;;;;6.15;5.65;;;;;;;;;;10411978;28;20749;-64
2022/01/07 22:25:39;;;;;;;6.15;5.65;;;;;;;;;;10413730;28;20233;-64
2022/01/07 22:30:40;;;;;;;6.20;5.78;;;;;;;;;;10413481;28;20702;-63
2022/01/07 22:35:41;;;;;;;6.55;5.93;;;;;;;;;;10416519;28;20199;-64
2022/01/07 22:40:42;;;;;;;6.00;5.50;;;;;;;;;;10399272;28;20191;-64
2022/01/07 22:45:43;;;;;;;7.95;5.93;;;;;;;;;;10420300;28;20192;-64
2022/01/07 22:50:44;;;;;;;6.70;5.35;;;;;;;;;;10422045;28;20226;-64
2022/01/07 22:55:45;;;;;;;5.93;5.22;;;;;;;;;;10420846;28;20295;-64
2022/01/07 23:00:47;;;;;;;5.45;5.05;;;;;;;;;;10422619;28;20214;-62
2022/01/07 23:05:48;;;;;;;5.07;4.68;;;;;;;;;;10419767;28;20540;-64
2022/01/07 23:10:49;;;;;;;6.60;6.10;;;;;;;;;;10422432;28;20202;-64
2022/01/07 23:15:50;;;;;;;5.55;5.15;;;;;;;;;;10417671;28;20186;-64
2022/01/07 23:20:53;;;;;;;6.65;6.05;;;;;;;;;;10424603;28;20211;-64
2022/01/07 23:25:54;;;;;;;6.85;6.15;;;;;;;;;;10421392;28;20222;-64
2022/01/07 23:30:55;;;;;;;7.38;6.47;;;;;;;;;;10428151;28;20276;-64
2022/01/07 23:35:56;;;;;;;6.88;6.30;;;;;;;;;;10420660;28;20758;-64
2022/01/07 23:40:59;;;;;;;8.05;7.25;;;;;;;;;;10419758;28;20264;-65
2022/01/07 23:46:00;;;;;;;6.97;6.47;;;;;;;;;;10417261;28;20306;-64
2022/01/07 23:51:01;;;;;;;8.13;7.38;;;;;;;;;;10418310;28;20218;-64
2022/01/07 23:56:03;;;;;;;7.10;6.53;;;;;;;;;;10419092;28;20198;-64
